Terminal Aerodrome Forecast
Issued by NWS Wilmington, OH

Current Version | Previous Version | Graphics & Text | Print | Product List | Glossary On
Versions: 1 2 3 4 5 6 7 8 9 10 11 12 13 14 15 16 17 18 19 20 21 22 23 24 25 26 27
000
FTUS41 KILN 221400 AAA
TAFDAY
TAF AMD
KDAY 221455Z 2215/2312 23006KT P6SM -SHRA FEW040 BKN100
     FM221600 24008KT P6SM SCT040 BKN100
     FM222000 26007KT P6SM BKN040
     FM230300 24004KT P6SM SCT040 BKN080=

USA.gov is the U.S. government's official web portal to all federal, state and local government web resources and services.